Flight Track Log - Related Links

Times and Time Zones

All times are in EDT time to prevent confusion due to time zone crossing. See the ASQ4137 flight status page for this flight to view local times or setup timezone preferences in your user account.

Time Position Orientation Groundspeed Altitude Reporting Facility
EDT Latitude Longitude Course Direction KTS MPH feet Rate Location/Type
Wed 07:08:30 AM 40.7167 -74.1333 252° West 164 189 1,600  Level New York TRACON
Wed 07:09:30 AM 40.7667 -74.1167 14° North 238 274 2,900 1,885 Climbing New York TRACON
Wed 07:11:00 AM 40.5975 -74.7150 258° West  Level FlightAware Approximate
Wed 07:11:41 AM 40.7458 -74.3156 262° West 257 296 7,600  Level New York Center
Wed 07:12:00 AM 40.5743 -74.8542 258° West  Level FlightAware Approximate
Wed 07:12:42 AM 40.7308 -74.4022 257° West 268 308 9,600  Level New York Center
Wed 07:13:00 AM 40.5559 -74.9933 252° West  Level FlightAware Approximate
Wed 07:13:41 AM 40.7150 -74.5083 259° West 273 314 11,700  Level New York Center
Wed 07:14:40 AM 40.6486 -74.5619 212° Southwest 263 303 12,000 857 Climbing New York Center
Wed 07:15:40 AM 40.5725 -74.5933 197° South 282 325 13,400 1,488 Climbing New York Center
Wed 07:16:41 AM 40.5781 -74.6839 275° West 221 254 15,000 1,537 Climbing New York Center
Wed 07:17:41 AM 40.6019 -74.7781 289° West 252 290 16,500 1,000 Climbing New York Center
Wed 07:18:41 AM 40.5861 -74.8728 258° West 290 334 17,000 958 Climbing New York Center
Wed 07:19:40 AM 40.5653 -74.9892 257° West 309 356 18,400 1,339 Climbing New York Center
Wed 07:20:42 AM 40.5264 -75.0850 242° Southwest 309 356 19,700 1,339 Climbing New York Center
Wed 07:21:41 AM 40.4692 -75.1742 230° Southwest 309 356 21,100 1,400 Climbing New York Center
Wed 07:22:42 AM 40.4136 -75.2633 231° Southwest 315 362 22,500 1,339 Climbing New York Center
Wed 07:23:42 AM 40.3558 -75.3547 230° Southwest 326 375 23,800 1,261 Climbing New York Center
Wed 07:24:41 AM 40.2958 -75.4517 231° Southwest 326 375 25,000 1,300 Climbing New York Center
Wed 07:25:42 AM 40.2381 -75.5428 230° Southwest 332 382 26,400 1,412 Climbing New York Center
Wed 07:26:40 AM 40.1861 -75.6397 235° Southwest 337 388 27,800 1,300 Climbing New York Center
Wed 07:27:42 AM 40.1361 -75.7367 236° Southwest 331 381 29,000 1,289 Climbing New York Center
Wed 07:28:41 AM 40.0883 -75.8311 237° Southwest 325 374 30,400 1,350 Climbing New York Center
Wed 07:29:42 AM 40.0425 -75.9253 238° Southwest 319 367 31,700 1,100 Climbing New York Center
Wed 07:30:41 AM 39.9944 -76.0222 237° Southwest 314 361 32,600 872 Climbing New York Center
Wed 07:31:39 AM 39.9444 -76.1158 235° Southwest 314 361 33,400 908 Climbing New York Center
Wed 07:32:40 AM 39.8942 -76.2147 236° Southwest 314 361 34,400 772 Climbing New York Center
Wed 07:35:01 AM 39.7858 -76.4286 237° Southwest 327 376 36,000 480 Climbing Washington Center
Wed 07:36:00 AM 39.7244 -76.5411 235° Southwest 332 382 36,000  Level Washington Center
Wed 07:37:02 AM 39.6675 -76.6456 235° Southwest 348 400 36,000  Level Washington Center
Wed 07:38:02 AM 39.6122 -76.7553 237° Southwest 354 407 36,000  Level Washington Center
Wed 07:39:01 AM 39.5547 -76.8619 235° Southwest 360 414 36,000  Level Washington Center
Wed 07:40:01 AM 39.4994 -76.9686 236° Southwest 365 420 36,000  Level Washington Center
Wed 07:41:02 AM 39.4233 -77.0558 222° Southwest 365 420 36,000  Level Washington Center
Wed 07:42:00 AM 39.3558 -77.1294 220° Southwest 365 420 36,000  Level Washington Center
Wed 07:43:01 AM 39.2736 -77.2108 217° Southwest 365 420 36,000  Level Washington Center
Wed 07:44:02 AM 39.1889 -77.3056 221° Southwest 370 426 36,000  Level Washington Center
Wed 07:44:59 AM 39.1147 -77.3786 217° Southwest 370 426 36,000  Level Washington Center
Wed 07:46:00 AM 39.0364 -77.4597 219° Southwest 375 432 36,000  Level Washington Center
Wed 07:47:01 AM 38.9475 -77.5481 218° Southwest 370 426 36,000  Level Washington Center
Wed 07:48:00 AM 38.8669 -77.6339 220° Southwest 376 433 36,000  Level Washington Center
Wed 07:49:00 AM 38.7925 -77.7117 219° Southwest 381 438 36,000  Level Washington Center
Wed 07:50:01 AM 38.6992 -77.8047 218° Southwest 392 451 36,000  Level Washington Center
Wed 07:51:02 AM 38.6247 -77.8903 222° Southwest 384 442 36,000  Level Washington Center
Wed 07:52:00 AM 38.5642 -77.9947 233° Southwest 378 435 36,000  Level Washington Center
Wed 07:53:00 AM 38.5014 -78.1014 233° Southwest 378 435 36,000  Level Washington Center
Wed 07:54:01 AM 38.4408 -78.2081 234° Southwest 373 429 36,000  Level Washington Center
Wed 07:55:01 AM 38.3781 -78.3117 232° Southwest 379 436 36,000  Level Washington Center
Wed 07:56:02 AM 38.3153 -78.4181 233° Southwest 379 436 36,000  Level Washington Center
Wed 07:57:01 AM 38.2522 -78.5239 233° Southwest 379 436 36,000  Level Washington Center
Wed 07:58:02 AM 38.1933 -78.6300 235° Southwest 379 436 36,000  Level Washington Center
Wed 07:59:00 AM 38.1300 -78.7356 233° Southwest 379 436 36,000  Level Washington Center
Wed 08:00:01 AM 38.0667 -78.8411 233° Southwest 379 436 36,000  Level Washington Center
Wed 08:01:01 AM 38.0014 -78.9464 232° Southwest 379 436 36,000  Level Washington Center
Wed 08:02:02 AM 37.9378 -79.0514 232° Southwest 379 436 36,000  Level Washington Center
Wed 08:03:02 AM 37.8700 -79.1536 230° Southwest 379 436 36,000  Level Washington Center
Wed 08:04:00 AM 37.8003 -79.2528 228° Southwest 385 443 36,000  Level Washington Center
Wed 08:05:01 AM 37.7286 -79.3517 228° Southwest 385 443 36,000  Level Washington Center
Wed 08:06:01 AM 37.6631 -79.4403 227° Southwest 390 449 36,000  Level Washington Center
Wed 08:07:02 AM 37.5822 -79.5517 228° Southwest 390 449 36,000  Level Washington Center
Wed 08:07:59 AM 37.5189 -79.6400 228° Southwest 390 449 36,000  Level Washington Center
Wed 08:09:48 AM 37.3831 -79.8236 227° Southwest 402 463 36,000  Level Atlanta Center
Wed 08:10:48 AM 37.3092 -79.9214 226° Southwest 402 463 36,000  Level Atlanta Center
Wed 08:11:48 AM 37.2333 -80.0219 227° Southwest 396 456 36,000  Level Atlanta Center
Wed 08:12:48 AM 37.1614 -80.1219 228° Southwest 396 456 36,000  Level Atlanta Center
Wed 08:13:48 AM 37.0875 -80.2219 227° Southwest 396 456 36,000  Level Atlanta Center
Wed 08:14:48 AM 37.0114 -80.3217 226° Southwest 396 456 36,000  Level Atlanta Center
Wed 08:15:48 AM 36.9392 -80.4186 227° Southwest 396 456 36,000  Level Atlanta Center
Wed 08:16:48 AM 36.8650 -80.5181 227° Southwest 396 456 36,000  Level Atlanta Center
Wed 08:17:48 AM 36.7906 -80.6172 227° Southwest 391 450 36,000  Level Atlanta Center
Wed 08:18:48 AM 36.7142 -80.7189 227° Southwest 384 442 36,000  Level Atlanta Center
Wed 08:19:48 AM 36.6417 -80.8178 228° Southwest 379 436 36,000  Level Atlanta Center
Wed 08:20:48 AM 36.5692 -80.9136 227° Southwest 379 436 36,000  Level Atlanta Center
Wed 08:21:48 AM 36.4983 -81.0069 227° Southwest 379 436 36,000  Level Atlanta Center
Wed 08:22:48 AM 36.4278 -81.0997 227° Southwest 379 436 36,000  Level Atlanta Center
Wed 08:23:48 AM 36.3569 -81.1978 228° Southwest 379 436 36,000  Level Atlanta Center
Wed 08:24:48 AM 36.2861 -81.2903 226° Southwest 379 436 36,000  Level Atlanta Center
Wed 08:25:48 AM 36.2131 -81.3856 226° Southwest 379 436 36,000  Level Atlanta Center
Wed 08:26:48 AM 36.1381 -81.4806 226° Southwest 379 436 36,000  Level Atlanta Center
Wed 08:27:48 AM 36.0650 -81.5781 227° Southwest 384 442 36,000  Level Atlanta Center
Wed 08:28:48 AM 35.9917 -81.6750 227° Southwest 384 442 36,000  Level Atlanta Center
Wed 08:29:48 AM 35.9225 -81.7617 225° Southwest 384 442 36,000 -100 Level Atlanta Center
Wed 08:30:48 AM 35.8492 -81.8586 227° Southwest 384 442 35,800 -500 Descending Atlanta Center
Wed 08:31:48 AM 35.7736 -81.9528 225° Southwest 384 442 35,000 -400 Descending Atlanta Center
Wed 08:32:48 AM 35.6981 -82.0519 227° Southwest 384 442 35,000  Level Atlanta Center
Wed 08:33:48 AM 35.6222 -82.1456 225° Southwest 384 442 35,000  Level Atlanta Center
Wed 08:34:48 AM 35.5486 -82.2392 226° Southwest 384 442 35,000 -100 Level Atlanta Center
Wed 08:35:48 AM 35.4728 -82.3328 225° Southwest 384 442 34,800 -800 Descending Atlanta Center
Wed 08:36:48 AM 35.3989 -82.4286 227° Southwest 384 442 33,400 -1,450 Descending Atlanta Center
Wed 08:37:48 AM 35.3208 -82.5242 225° Southwest 384 442 31,900 -1,500 Descending Atlanta Center
Wed 08:38:48 AM 35.2447 -82.6147 224° Southwest 384 442 30,400 2,050 Descending Atlanta Center
Wed 08:39:48 AM 35.1706 -82.7100 226° Southwest 384 442 36,000 -1,350 Climbing Atlanta Center
Wed 08:40:48 AM 35.0964 -82.8000 225° Southwest 384 442 27,700 -4,850 Descending Atlanta Center
Wed 08:41:48 AM 35.0203 -82.8975 226° Southwest 384 442 26,300 -1,450 Descending Atlanta Center
Wed 08:42:48 AM 34.9439 -82.9922 225° Southwest 384 442 24,800 -1,150 Descending Atlanta Center
Wed 08:43:48 AM 34.8508 -83.0897 221° Southwest 391 450 24,000 -400 Descending Atlanta Center
Wed 08:44:48 AM 34.7658 -83.1792 221° Southwest 403 464 24,000  Level Atlanta Center
Wed 08:45:48 AM 34.6872 -83.2556 219° Southwest 408 470 24,000  Level Atlanta Center
Wed 08:46:48 AM 34.5897 -83.3525 219° Southwest 413 475 24,000 -950 Level Atlanta Center
Wed 08:47:48 AM 34.5003 -83.4389 219° Southwest 418 481 22,100 -2,050 Descending Atlanta Center
Wed 08:48:48 AM 34.4131 -83.5250 219° Southwest 418 481 19,900 -2,150 Descending Atlanta Center
Wed 08:49:48 AM 34.3300 -83.6086 220° Southwest 413 475 17,800 -2,250 Descending Atlanta Center
Wed 08:50:48 AM 34.2425 -83.6944 219° Southwest 408 470 15,400 -2,300 Descending Atlanta Center
Wed 08:51:48 AM 34.1592 -83.7753 219° Southwest 401 461 13,200 -1,700 Descending Atlanta Center
Wed 08:52:48 AM 34.0758 -83.8558 219° Southwest 401 461 12,000 -600 Descending Atlanta Center
Wed 08:53:48 AM 34.0008 -83.9486 226° Southwest 394 453 12,000  Level Atlanta Center
Wed 08:54:47 AM 33.9333 -84.0333 226° Southwest 379 436 12,000  Level Atlanta TRACON
Wed 08:55:47 AM 33.8500 -84.1333 225° Southwest 380 437 12,000  Level Atlanta TRACON
Wed 08:56:47 AM 33.7833 -84.2167 226° Southwest 300 345 12,000  Level Atlanta TRACON
Wed 08:57:46 AM 33.7333 -84.2667 220° Southwest 255 293 12,000 -605 Level Atlanta TRACON
Wed 08:58:46 AM 33.7333 -84.3500 270° West 247 284 10,800 -1,488 Descending Atlanta TRACON
Wed 08:59:47 AM 33.7333 -84.4333 270° West 248 285 9,000 -1,983 Descending Atlanta TRACON
Wed 09:00:47 AM 33.7333 -84.5167 270° West 238 274 6,800 -1,762 Descending Atlanta TRACON
Wed 09:01:53 AM 33.7333 -84.6000 270° West 227 261 5,300 -1,190 Descending Atlanta TRACON
Wed 09:02:53 AM 33.6833 -84.6333 209° Southwest 197 227 4,300 -1,053 Descending Atlanta TRACON
Wed 09:03:47 AM 33.6667 -84.6000 121° Southeast 183 211 3,300 -789 Descending Atlanta TRACON
Wed 09:04:47 AM 33.6500 -84.5500 112° Southeast 149 171 2,800 -650 Descending Atlanta TRACON
Wed 09:05:47 AM 33.6500 -84.5000 90° East 124 143 2,000 -750 Descending Atlanta TRACON
Wed 09:06:47 AM 33.6500 -84.4500 90° East 131 151 1,300 -700 Descending Atlanta TRACON
Wed 09:08:00 AM 33.6367 -84.4279 103° East  Level Estimated
Wed 09:15:00 AM 33.6367 -84.4279 103° East  Level Estimated
Wed 09:16:00 AM 33.6367 -84.4279 103° East  Level Estimated

Login

Don't have an account? Register now (free) for customized features, flight alerts, and more!